Time;durP1;ratioP1;P1;durP2;ratioP2;P2;SDS_P1;SDS_P2;PMS_P1;PMS_P2;Temp;Humidity;BMP_temperature;BMP_pressure;BME280_temperature;BME280_humidity;BME280_pressure;Samples;Min_cycle;Max_cycle;Signal;HPM_P1;HPM_P2
2024/03/17 00:02:21;;;;;;;4.60;1.73;;;2.20;99.90;;;;;;4935665;28;21415;-48
2024/03/17 00:04:46;;;;;;;3.65;1.70;;;2.20;99.90;;;;;;4972124;28;20049;-45
2024/03/17 00:07:13;;;;;;;7.05;2.35;;;2.20;99.90;;;;;;4940091;28;20034;-46
2024/03/17 00:09:39;;;;;;;6.32;2.00;;;2.10;99.90;;;;;;4931500;28;20145;-45
2024/03/17 00:12:05;;;;;;;8.05;2.17;;;2.10;99.90;;;;;;4944159;28;20034;-46
2024/03/17 00:14:31;;;;;;;8.95;2.05;;;2.10;99.90;;;;;;4909068;28;20034;-47
2024/03/17 00:16:57;;;;;;;6.55;1.83;;;2.10;99.90;;;;;;4949650;28;20029;-46
2024/03/17 00:19:24;;;;;;;8.68;2.30;;;2.00;99.90;;;;;;4942024;28;20346;-46
2024/03/17 00:21:53;;;;;;;9.07;2.83;;;2.00;99.90;;;;;;4904667;28;22133;-45
2024/03/17 00:24:19;;;;;;;11.07;2.20;;;2.00;99.90;;;;;;4929772;28;20130;-46
2024/03/17 00:26:49;;;;;;;7.45;2.22;;;2.00;99.90;;;;;;4929427;28;20569;-46
2024/03/17 00:29:14;;;;;;;10.20;2.53;;;2.00;99.90;;;;;;4910423;28;21089;-49
2024/03/17 00:31:40;;;;;;;5.68;2.00;;;2.00;99.90;;;;;;4964678;28;20040;-47
2024/03/17 00:34:06;;;;;;;8.20;1.98;;;1.90;99.90;;;;;;4914460;28;20029;-47
2024/03/17 00:36:32;;;;;;;10.13;3.00;;;1.90;99.90;;;;;;4913379;28;20925;-55
2024/03/17 00:38:57;;;;;;;5.55;1.98;;;1.90;99.90;;;;;;4931701;28;20061;-46
2024/03/17 00:41:23;;;;;;;5.35;2.35;;;1.80;99.90;;;;;;4903657;28;21033;-45
2024/03/17 00:43:50;;;;;;;9.13;1.75;;;1.80;99.90;;;;;;4964046;28;20122;-45
2024/03/17 00:46:15;;;;;;;5.80;2.05;;;1.80;99.90;;;;;;4892887;28;20034;-47
2024/03/17 00:48:41;;;;;;;5.35;2.05;;;1.80;99.90;;;;;;4906680;28;20418;-45
2024/03/17 00:51:07;;;;;;;12.80;2.50;;;1.90;99.90;;;;;;4942333;28;20084;-48
2024/03/17 00:53:32;;;;;;;5.70;1.63;;;1.80;99.90;;;;;;4905121;28;20018;-50
2024/03/17 00:55:58;;;;;;;4.30;1.92;;;1.90;99.90;;;;;;4925072;28;20541;-54
2024/03/17 00:58:24;;;;;;;14.27;2.55;;;1.90;99.90;;;;;;4939609;28;20544;-47
2024/03/17 01:00:50;;;;;;;8.65;1.88;;;1.90;99.90;;;;;;4907812;28;21577;-45
2024/03/17 01:03:16;;;;;;;12.57;2.58;;;2.00;99.90;;;;;;4955715;28;20044;-45
2024/03/17 01:05:44;;;;;;;4.30;1.42;;;2.00;99.90;;;;;;4877091;28;20034;-47
2024/03/17 01:08:16;;;;;;;7.32;1.55;;;2.00;99.90;;;;;;4891734;28;20122;-47
2024/03/17 01:10:42;;;;;;;3.15;1.95;;;2.00;99.90;;;;;;4956997;28;20037;-45
2024/03/17 01:13:09;;;;;;;6.47;2.22;;;2.10;99.90;;;;;;4910595;28;20095;-46
2024/03/17 01:15:39;;;;;;;6.93;1.48;;;2.00;99.90;;;;;;4893248;28;20026;-54
2024/03/17 01:18:05;;;;;;;6.97;1.75;;;2.10;99.90;;;;;;4935562;28;20099;-47
2024/03/17 01:20:37;;;;;;;5.78;2.22;;;2.00;99.90;;;;;;4896448;28;20034;-45
2024/03/17 01:23:05;;;;;;;13.13;2.55;;;2.00;99.90;;;;;;4931424;28;20061;-52
2024/03/17 01:25:35;;;;;;;5.38;1.77;;;2.00;99.90;;;;;;4950728;28;20061;-47
2024/03/17 01:28:01;;;;;;;12.02;1.92;;;2.00;99.90;;;;;;4914287;28;20030;-45
2024/03/17 01:30:27;;;;;;;3.85;1.67;;;2.00;99.90;;;;;;4950651;28;20037;-52
2024/03/17 01:32:53;;;;;;;7.22;2.17;;;2.00;99.90;;;;;;4923241;28;20060;-44
2024/03/17 01:35:18;;;;;;;7.45;1.98;;;2.00;99.90;;;;;;4912346;28;20022;-46
2024/03/17 01:37:44;;;;;;;11.40;1.80;;;2.00;99.90;;;;;;4951383;28;20029;-45
2024/03/17 01:40:10;;;;;;;7.15;1.73;;;2.00;99.90;;;;;;4878387;28;20046;-44
2024/03/17 01:42:40;;;;;;;6.63;1.30;;;2.00;99.90;;;;;;4899899;28;20533;-54
2024/03/17 01:45:30;;;;;;;7.90;2.15;;;2.00;99.90;;;;;;4937650;28;20482;-46
2024/03/17 01:47:58;;;;;;;7.18;2.38;;;2.00;99.90;;;;;;4915470;28;20030;-47
2024/03/17 01:50:34;;;;;;;4.47;1.45;;;2.00;99.90;;;;;;4908944;28;20068;-47
2024/03/17 01:53:04;;;;;;;6.07;1.30;;;2.00;99.90;;;;;;4935534;28;20049;-53
2024/03/17 01:55:32;;;;;;;5.03;1.63;;;2.00;99.90;;;;;;4928489;28;20029;-44
2024/03/17 01:57:58;;;;;;;4.03;1.45;;;2.00;99.90;;;;;;4894029;28;20855;-46
2024/03/17 02:00:23;;;;;;;5.65;1.92;;;2.00;99.90;;;;;;4957555;28;20204;-46
2024/03/17 02:02:49;;;;;;;5.63;2.13;;;2.00;99.90;;;;;;4903387;28;20040;-44
2024/03/17 02:05:15;;;;;;;11.98;2.13;;;1.90;99.90;;;;;;4895602;28;20093;-45
2024/03/17 02:07:40;;;;;;;7.22;2.28;;;2.00;99.90;;;;;;4933601;28;20026;-48
2024/03/17 02:10:08;;;;;;;5.22;2.08;;;1.90;99.90;;;;;;4887689;28;20058;-45
2024/03/17 02:12:34;;;;;;;7.65;2.05;;;1.90;99.90;;;;;;4914830;28;20061;-54
2024/03/17 02:15:00;;;;;;;9.18;1.73;;;1.90;99.90;;;;;;4927775;28;20033;-47
2024/03/17 02:17:28;;;;;;;6.43;2.35;;;1.90;99.90;;;;;;4906719;28;21645;-50
2024/03/17 02:19:54;;;;;;;7.20;1.92;;;1.80;99.90;;;;;;4930590;28;20022;-47
2024/03/17 02:22:19;;;;;;;4.80;2.08;;;1.80;99.90;;;;;;4897985;28;20045;-45
2024/03/17 02:24:45;;;;;;;6.18;2.10;;;1.80;99.90;;;;;;4881978;28;20521;-44
2024/03/17 02:27:11;;;;;;;6.35;2.28;;;1.80;99.90;;;;;;4941560;28;21745;-46
2024/03/17 02:29:37;;;;;;;6.95;2.38;;;1.70;99.90;;;;;;4903511;28;20068;-46
2024/03/17 02:32:09;;;;;;;5.22;2.28;;;1.70;99.90;;;;;;4915827;28;20033;-53
2024/03/17 02:34:35;;;;;;;6.47;1.95;;;1.70;99.90;;;;;;4928550;28;20383;-47
2024/03/17 02:37:03;;;;;;;5.50;2.58;;;1.70;99.90;;;;;;4882468;28;20092;-45
2024/03/17 02:39:34;;;;;;;7.55;2.30;;;1.70;99.90;;;;;;4930706;28;20029;-55
2024/03/17 02:42:09;;;;;;;11.27;2.83;;;1.60;99.90;;;;;;4927147;28;20092;-45
2024/03/17 02:44:35;;;;;;;13.57;2.60;;;1.60;99.90;;;;;;4898380;28;20558;-47
2024/03/17 02:47:03;;;;;;;10.20;2.42;;;1.60;99.90;;;;;;4915720;28;20022;-52
2024/03/17 02:49:52;;;;;;;5.25;1.80;;;1.50;99.90;;;;;;4902219;28;20192;-45
2024/03/17 02:52:16;;;;;;;4.95;1.70;;;1.50;99.90;;;;;;4888939;28;20471;-46
2024/03/17 02:54:41;;;;;;;9.27;2.17;;;1.50;99.90;;;;;;4875571;28;20037;-47
2024/03/17 02:57:07;;;;;;;3.95;2.08;;;1.40;99.90;;;;;;4947010;28;20029;-46
2024/03/17 02:59:33;;;;;;;10.38;1.83;;;1.40;99.90;;;;;;4897308;28;20072;-46
2024/03/17 03:01:59;;;;;;;6.32;2.03;;;1.40;99.90;;;;;;4928023;28;20026;-46
2024/03/17 03:04:25;;;;;;;7.85;1.88;;;1.40;99.90;;;;;;4855513;28;20034;-48
2024/03/17 03:06:51;;;;;;;5.88;2.03;;;1.30;99.90;;;;;;4868862;28;22152;-49
2024/03/17 03:09:25;;;;;;;6.57;1.92;;;1.30;99.90;;;;;;4928463;28;20088;-45
2024/03/17 03:11:51;;;;;;;7.57;1.88;;;1.30;99.90;;;;;;4884451;28;20056;-46
2024/03/17 03:14:17;;;;;;;6.40;1.55;;;1.30;99.90;;;;;;4888881;28;20029;-46
2024/03/17 03:16:43;;;;;;;7.20;1.92;;;1.20;99.90;;;;;;4924666;28;20029;-48
2024/03/17 03:19:09;;;;;;;11.25;2.30;;;1.20;99.90;;;;;;4928442;28;20108;-46
2024/03/17 03:21:35;;;;;;;6.95;1.45;;;1.20;99.90;;;;;;4878057;28;20481;-56
2024/03/17 03:24:01;;;;;;;7.47;2.05;;;1.20;99.90;;;;;;4927695;28;20036;-48
2024/03/17 03:26:28;;;;;;;8.63;2.20;;;1.20;99.90;;;;;;4884193;28;21526;-46
2024/03/17 03:28:55;;;;;;;8.05;1.88;;;1.20;99.90;;;;;;4908501;28;20053;-46
2024/03/17 03:31:21;;;;;;;7.15;1.98;;;1.20;99.90;;;;;;4926162;28;20030;-47
2024/03/17 03:33:47;;;;;;;8.13;1.92;;;1.10;99.90;;;;;;4919433;28;20095;-45
2024/03/17 03:36:14;;;;;;;6.05;1.50;;;1.10;99.90;;;;;;4912783;28;21409;-46
2024/03/17 03:38:40;;;;;;;7.50;1.85;;;1.10;99.90;;;;;;4951018;28;20037;-45
2024/03/17 03:41:10;;;;;;;7.32;1.85;;;1.00;99.90;;;;;;4943123;28;20062;-50
2024/03/17 03:43:36;;;;;;;7.10;2.20;;;1.00;99.90;;;;;;4962992;28;20029;-45
2024/03/17 03:46:02;;;;;;;4.80;1.67;;;1.00;99.90;;;;;;4978355;28;20038;-50
2024/03/17 03:48:28;;;;;;;4.30;1.75;;;1.00;99.90;;;;;;4925707;28;20057;-48
2024/03/17 03:50:54;;;;;;;6.05;2.20;;;1.00;99.90;;;;;;4922760;28;20105;-55
2024/03/17 03:53:20;;;;;;;4.32;1.77;;;0.90;99.90;;;;;;4942887;28;22476;-46
2024/03/17 03:55:45;;;;;;;3.65;1.33;;;1.00;99.90;;;;;;4966237;28;20030;-47
2024/03/17 03:58:12;;;;;;;7.85;1.60;;;1.00;99.90;;;;;;4935045;28;20500;-47
2024/03/17 04:00:39;;;;;;;9.85;1.95;;;1.00;99.90;;;;;;4920583;28;20022;-47
2024/03/17 04:03:05;;;;;;;7.38;1.80;;;1.00;99.90;;;;;;4928664;28;20206;-47
2024/03/17 04:05:31;;;;;;;6.38;1.95;;;1.00;99.90;;;;;;4928867;28;20038;-47
2024/03/17 04:07:57;;;;;;;8.35;1.88;;;1.10;99.90;;;;;;4961995;28;20045;-46
2024/03/17 04:10:23;;;;;;;5.80;1.70;;;1.10;99.90;;;;;;4952198;28;20497;-46
2024/03/17 04:12:49;;;;;;;5.28;1.63;;;1.10;99.90;;;;;;4903977;28;20023;-47
2024/03/17 04:15:15;;;;;;;7.43;1.98;;;1.10;99.90;;;;;;4940670;28;20041;-45
2024/03/17 04:17:42;;;;;;;6.55;1.88;;;1.10;99.90;;;;;;4965514;28;20054;-47
2024/03/17 04:20:09;;;;;;;6.43;1.40;;;1.10;99.90;;;;;;4927891;28;20113;-54
2024/03/17 04:22:35;;;;;;;6.15;1.73;;;1.20;99.90;;;;;;4951039;28;20022;-46
2024/03/17 04:25:00;;;;;;;6.20;1.88;;;1.20;99.90;;;;;;4901761;28;20057;-47
2024/03/17 04:27:26;;;;;;;8.88;1.63;;;1.20;99.90;;;;;;4882231;28;20053;-45
2024/03/17 04:29:56;;;;;;;4.15;1.65;;;1.20;99.90;;;;;;4920885;28;20089;-54
2024/03/17 04:32:22;;;;;;;7.75;1.50;;;1.20;99.90;;;;;;4955764;28;21527;-45
2024/03/17 04:34:47;;;;;;;7.30;2.25;;;1.30;99.90;;;;;;4960407;28;21928;-45
2024/03/17 04:37:13;;;;;;;6.25;1.85;;;1.30;99.90;;;;;;4891621;28;20054;-45
2024/03/17 04:39:43;;;;;;;10.93;2.78;;;1.30;99.90;;;;;;4957070;28;20112;-48
2024/03/17 04:42:09;;;;;;;5.88;2.15;;;1.30;99.90;;;;;;4944095;28;20109;-46
2024/03/17 04:44:35;;;;;;;3.35;1.50;;;1.30;99.90;;;;;;4921993;28;20045;-45
2024/03/17 04:47:06;;;;;;;5.70;1.40;;;1.30;99.90;;;;;;4934522;28;20065;-54
2024/03/17 04:49:33;;;;;;;5.70;2.22;;;1.30;99.90;;;;;;4926800;28;20018;-48
2024/03/17 04:51:59;;;;;;;5.38;1.90;;;1.30;99.90;;;;;;4926473;28;20034;-50
2024/03/17 04:54:24;;;;;;;6.40;1.98;;;1.30;99.90;;;;;;4919341;28;20025;-46
2024/03/17 04:56:50;;;;;;;9.10;2.03;;;1.30;99.90;;;;;;4915436;28;20018;-45
2024/03/17 04:59:15;;;;;;;9.65;1.90;;;1.30;99.90;;;;;;4960105;28;20033;-44
2024/03/17 05:01:41;;;;;;;6.53;1.90;;;1.30;99.90;;;;;;4954593;28;20445;-46
2024/03/17 05:04:07;;;;;;;9.50;1.75;;;1.30;99.90;;;;;;4960872;28;20022;-47
2024/03/17 05:06:33;;;;;;;6.90;2.30;;;1.30;99.90;;;;;;4941095;28;20137;-46
2024/03/17 05:08:58;;;;;;;4.35;1.83;;;1.20;99.90;;;;;;4944618;28;20057;-53
2024/03/17 05:11:24;;;;;;;5.53;1.90;;;1.20;99.90;;;;;;4960383;28;20044;-48
2024/03/17 05:13:50;;;;;;;8.38;2.22;;;1.20;99.90;;;;;;4959836;28;21032;-46
2024/03/17 05:16:15;;;;;;;8.98;2.22;;;1.10;99.90;;;;;;4986550;28;20092;-48
2024/03/17 05:18:41;;;;;;;8.68;2.13;;;1.10;99.90;;;;;;4967822;28;20025;-46
2024/03/17 05:21:07;;;;;;;9.30;2.05;;;1.10;99.90;;;;;;4961967;28;20026;-44
2024/03/17 05:23:37;;;;;;;11.10;2.50;;;1.00;99.90;;;;;;4976533;28;20049;-46
2024/03/17 05:26:06;;;;;;;6.45;1.85;;;1.00;99.90;;;;;;4946979;28;20052;-45
2024/03/17 05:28:32;;;;;;;11.13;2.30;;;1.00;99.90;;;;;;4943291;28;20064;-55
2024/03/17 05:30:57;;;;;;;6.68;1.80;;;0.90;99.90;;;;;;4980825;28;20021;-45
2024/03/17 05:33:24;;;;;;;8.30;1.58;;;0.90;99.90;;;;;;4930381;28;20068;-48
2024/03/17 05:35:54;;;;;;;5.60;2.22;;;0.90;99.90;;;;;;4975251;28;20048;-46
2024/03/17 05:38:24;;;;;;;4.25;1.60;;;0.90;99.90;;;;;;4950762;28;20117;-46
2024/03/17 05:41:01;;;;;;;8.20;2.28;;;0.90;99.90;;;;;;4945786;28;22426;-44
2024/03/17 05:43:27;;;;;;;9.20;2.53;;;0.80;99.90;;;;;;4970783;28;20194;-48
2024/03/17 05:45:54;;;;;;;6.55;2.22;;;0.80;99.90;;;;;;4958077;28;20069;-46
2024/03/17 05:48:20;;;;;;;9.70;2.15;;;0.80;99.90;;;;;;4935880;28;20022;-48
2024/03/17 05:50:46;;;;;;;10.15;2.03;;;0.80;99.90;;;;;;4972812;28;20084;-47
2024/03/17 05:53:11;;;;;;;11.27;2.35;;;0.70;99.90;;;;;;4947074;28;20522;-45
2024/03/17 05:55:38;;;;;;;5.80;2.67;;;0.70;99.90;;;;;;4941999;28;20208;-45
2024/03/17 05:58:04;;;;;;;7.15;2.55;;;0.70;99.90;;;;;;4970898;28;20036;-47
2024/03/17 06:00:30;;;;;;;5.85;2.30;;;0.70;99.90;;;;;;4948670;28;20025;-46
2024/03/17 06:02:57;;;;;;;5.95;2.05;;;0.70;99.90;;;;;;4946593;28;20029;-51
2024/03/17 06:05:22;;;;;;;7.55;2.47;;;0.70;99.90;;;;;;4956074;28;20033;-48
2024/03/17 06:07:48;;;;;;;4.15;1.75;;;0.70;99.90;;;;;;4933759;28;21409;-45
2024/03/17 06:10:14;;;;;;;7.55;2.10;;;0.70;99.90;;;;;;4958168;28;20022;-46
2024/03/17 06:12:39;;;;;;;4.85;2.35;;;0.70;99.90;;;;;;4919306;28;20034;-45
2024/03/17 06:15:06;;;;;;;6.22;2.40;;;0.70;99.90;;;;;;4939399;28;20398;-47
2024/03/17 06:17:32;;;;;;;7.28;2.60;;;0.70;99.90;;;;;;4978247;28;20030;-45
2024/03/17 06:19:57;;;;;;;4.00;2.20;;;0.70;99.90;;;;;;4929244;28;20037;-45
2024/03/17 06:22:24;;;;;;;4.90;2.10;;;0.70;99.90;;;;;;4955868;28;20558;-46
2024/03/17 06:24:50;;;;;;;6.68;2.58;;;0.70;99.90;;;;;;4958543;28;20383;-50
2024/03/17 06:27:16;;;;;;;5.22;2.42;;;0.70;99.90;;;;;;4944121;28;20080;-46
2024/03/17 06:29:42;;;;;;;9.35;2.35;;;0.70;99.90;;;;;;4984751;28;20022;-46
2024/03/17 06:32:08;;;;;;;8.98;2.42;;;0.70;99.90;;;;;;4923793;28;20018;-44
2024/03/17 06:34:34;;;;;;;5.18;2.53;;;0.70;99.90;;;;;;4917768;28;20026;-54
2024/03/17 06:37:00;;;;;;;7.85;2.65;;;0.80;99.90;;;;;;4965524;28;20030;-44
2024/03/17 06:39:25;;;;;;;9.27;2.53;;;0.80;99.90;;;;;;4923805;28;20038;-47
2024/03/17 06:41:51;;;;;;;9.95;3.13;;;0.80;99.90;;;;;;4975101;28;20061;-45
2024/03/17 06:44:17;;;;;;;5.40;2.63;;;0.90;99.90;;;;;;4949743;28;20145;-48
2024/03/17 06:46:43;;;;;;;5.10;2.15;;;0.90;99.90;;;;;;4905868;28;20018;-46
2024/03/17 06:49:09;;;;;;;9.35;3.03;;;0.90;99.90;;;;;;4953552;28;20070;-45
2024/03/17 06:51:35;;;;;;;13.52;3.40;;;1.00;99.90;;;;;;4932938;28;20018;-47
2024/03/17 06:54:01;;;;;;;6.13;2.30;;;1.10;99.90;;;;;;4953251;28;20530;-53
2024/03/17 06:56:26;;;;;;;7.75;2.58;;;1.10;99.90;;;;;;4970664;28;20038;-49
2024/03/17 06:58:52;;;;;;;11.63;3.42;;;1.10;99.90;;;;;;4929860;28;21738;-48
2024/03/17 07:01:19;;;;;;;11.52;3.22;;;1.20;99.90;;;;;;4940810;28;20405;-46
2024/03/17 07:03:44;;;;;;;8.18;2.38;;;1.30;99.90;;;;;;4929933;28;20082;-48
2024/03/17 07:06:10;;;;;;;10.07;3.22;;;1.40;99.90;;;;;;4946934;28;20206;-47
2024/03/17 07:08:37;;;;;;;11.52;3.47;;;1.40;99.90;;;;;;4982901;28;20719;-47
2024/03/17 07:11:04;;;;;;;5.57;3.30;;;1.50;99.90;;;;;;4920896;28;20113;-46
2024/03/17 07:13:32;;;;;;;9.52;2.53;;;1.60;99.90;;;;;;4940103;28;20034;-54
2024/03/17 07:15:59;;;;;;;11.50;2.67;;;1.70;99.90;;;;;;4944844;28;20054;-48
2024/03/17 07:18:31;;;;;;;6.85;2.53;;;1.80;99.90;;;;;;4944905;28;20033;-44
2024/03/17 07:21:00;;;;;;;8.63;3.33;;;1.90;99.90;;;;;;4964872;28;20703;-46
2024/03/17 07:23:26;;;;;;;12.40;3.35;;;2.00;99.90;;;;;;4959722;28;20401;-49
2024/03/17 07:25:56;;;;;;;9.38;3.25;;;2.10;99.90;;;;;;4926185;28;20698;-47
2024/03/17 07:28:22;;;;;;;10.10;3.85;;;2.20;99.90;;;;;;4941873;28;20037;-46
2024/03/17 07:30:54;;;;;;;14.98;3.90;;;2.30;99.90;;;;;;4951802;28;20431;-45
2024/03/17 07:33:20;;;;;;;9.15;3.28;;;2.40;99.90;;;;;;4922378;28;20046;-45
2024/03/17 07:36:02;;;;;;;8.75;3.90;;;2.50;99.90;;;;;;4974842;28;20030;-47
2024/03/17 07:38:30;;;;;;;9.77;3.78;;;2.60;99.90;;;;;;4964283;28;20060;-49
2024/03/17 07:41:04;;;;;;;10.70;3.65;;;2.70;99.90;;;;;;4894875;28;20112;-50
2024/03/17 07:43:31;;;;;;;12.93;4.03;;;2.90;99.90;;;;;;4950872;28;20042;-55
2024/03/17 07:46:08;;;;;;;14.25;4.15;;;2.90;99.90;;;;;;4961420;28;20161;-46
2024/03/17 07:48:37;;;;;;;5.75;2.55;;;3.00;99.90;;;;;;4935317;28;20138;-46
2024/03/17 07:51:04;;;;;;;14.88;3.03;;;3.10;99.90;;;;;;4927456;28;20104;-54
2024/03/17 07:53:31;;;;;;;9.70;2.63;;;3.30;99.90;;;;;;4943531;28;20124;-48
2024/03/17 07:56:01;;;;;;;8.93;2.55;;;3.40;99.90;;;;;;4914028;28;21673;-46
2024/03/17 07:58:27;;;;;;;10.88;2.60;;;3.40;99.90;;;;;;4961231;28;20057;-49
2024/03/17 08:00:56;;;;;;;14.00;3.28;;;3.60;99.90;;;;;;4916867;28;20030;-53
2024/03/17 08:03:22;;;;;;;14.98;3.83;;;3.80;99.90;;;;;;4920083;28;21645;-47
2024/03/17 08:05:51;;;;;;;8.57;2.90;;;4.00;99.90;;;;;;4946172;28;20060;-48
2024/03/17 08:08:17;;;;;;;6.40;1.92;;;4.10;99.90;;;;;;4910872;28;20038;-47
2024/03/17 08:10:42;;;;;;;12.93;2.50;;;4.20;99.90;;;;;;4908077;28;20072;-49
2024/03/17 08:13:11;;;;;;;7.88;2.53;;;4.30;99.90;;;;;;4957100;28;20034;-49
2024/03/17 08:15:37;;;;;;;9.23;1.75;;;4.60;99.90;;;;;;4917231;28;20029;-48
2024/03/17 08:18:03;;;;;;;6.97;1.42;;;4.70;99.90;;;;;;4932737;28;20057;-55
2024/03/17 08:20:29;;;;;;;5.57;1.48;;;4.90;99.90;;;;;;4925165;28;20696;-46
2024/03/17 08:22:55;;;;;;;5.30;0.85;;;5.10;99.90;;;;;;4911423;28;20939;-49
2024/03/17 08:25:20;;;;;;;2.75;1.10;;;5.30;99.90;;;;;;4954877;28;20588;-50
2024/03/17 08:27:46;;;;;;;5.95;1.60;;;5.50;99.90;;;;;;4915790;28;20030;-46
2024/03/17 08:30:13;;;;;;;7.07;1.52;;;5.60;99.90;;;;;;4907532;28;20149;-46
2024/03/17 08:32:39;;;;;;;8.60;1.60;;;5.70;99.90;;;;;;4938919;28;20058;-48
2024/03/17 08:35:06;;;;;;;4.15;1.20;;;5.90;99.90;;;;;;4896794;28;20705;-49
2024/03/17 08:37:31;;;;;;;7.32;1.77;;;6.10;99.90;;;;;;4923394;28;20031;-55
2024/03/17 08:39:57;;;;;;;6.43;1.55;;;6.20;99.90;;;;;;4918540;28;20041;-49
2024/03/17 08:42:22;;;;;;;5.45;1.38;;;6.50;99.90;;;;;;4905220;28;21418;-49
2024/03/17 08:44:48;;;;;;;5.07;1.35;;;6.60;99.90;;;;;;4929896;28;20034;-48
2024/03/17 08:47:14;;;;;;;6.65;1.45;;;6.70;99.90;;;;;;4897943;28;20529;-52
2024/03/17 08:49:39;;;;;;;5.07;0.85;;;6.70;99.90;;;;;;4886315;28;20108;-53
2024/03/17 08:52:05;;;;;;;7.75;2.00;;;6.70;99.90;;;;;;4946716;28;20021;-47
2024/03/17 08:54:30;;;;;;;16.38;2.70;;;6.80;99.90;;;;;;4907166;28;20616;-50
2024/03/17 08:56:56;;;;;;;9.57;2.13;;;6.80;99.90;;;;;;4942256;28;20115;-50
2024/03/17 08:59:21;;;;;;;10.25;1.65;;;6.60;99.90;;;;;;4893333;28;20033;-49
2024/03/17 09:01:47;;;;;;;11.32;2.08;;;6.30;99.90;;;;;;4896743;28;21812;-50
2024/03/17 09:04:13;;;;;;;6.35;1.90;;;6.30;99.90;;;;;;4934619;28;21294;-47
2024/03/17 09:06:38;;;;;;;8.93;1.98;;;6.20;99.90;;;;;;4904594;28;20026;-47
2024/03/17 09:09:06;;;;;;;11.90;2.83;;;6.30;99.90;;;;;;4917916;28;20022;-55
2024/03/17 09:11:31;;;;;;;11.55;2.72;;;6.50;99.90;;;;;;4906188;28;20033;-50
2024/03/17 09:13:58;;;;;;;8.27;1.88;;;6.70;99.90;;;;;;4889463;28;21819;-49
2024/03/17 09:16:25;;;;;;;9.88;2.55;;;6.70;99.90;;;;;;4933804;28;20018;-47
2024/03/17 09:18:51;;;;;;;12.13;2.65;;;6.60;99.90;;;;;;4899719;28;20033;-50
2024/03/17 09:21:17;;;;;;;9.32;2.75;;;6.40;99.90;;;;;;4893194;28;20501;-49
2024/03/17 09:23:43;;;;;;;8.18;1.75;;;6.30;99.90;;;;;;4925481;28;20038;-47
2024/03/17 09:26:09;;;;;;;6.70;2.13;;;6.30;99.90;;;;;;4894833;28;20084;-48
2024/03/17 09:28:36;;;;;;;5.78;1.30;;;6.40;99.90;;;;;;4896947;28;20025;-55
2024/03/17 09:31:02;;;;;;;11.13;2.67;;;6.70;99.90;;;;;;4928199;28;20038;-50
2024/03/17 09:33:29;;;;;;;9.60;1.95;;;6.90;99.90;;;;;;4896558;28;22323;-49
2024/03/17 09:36:02;;;;;;;7.38;1.75;;;7.10;99.90;;;;;;4931671;28;20025;-45
2024/03/17 09:38:29;;;;;;;10.18;2.22;;;7.10;99.90;;;;;;4920023;28;20041;-50
2024/03/17 09:41:02;;;;;;;9.95;2.40;;;7.00;99.90;;;;;;4888808;28;21399;-49
2024/03/17 09:43:29;;;;;;;7.00;1.83;;;6.70;99.90;;;;;;4925990;28;20030;-55
2024/03/17 09:45:57;;;;;;;8.00;1.42;;;6.70;99.90;;;;;;4891604;28;21015;-48
2024/03/17 09:48:24;;;;;;;6.95;2.22;;;6.50;99.90;;;;;;4940424;28;22505;-49
2024/03/17 09:50:55;;;;;;;7.10;2.17;;;6.40;99.90;;;;;;4911008;28;20024;-49
2024/03/17 09:53:27;;;;;;;1.75;1.15;;;6.60;99.90;;;;;;4862385;28;20405;-51
2024/03/17 09:56:11;;;;;;;7.57;1.73;;;6.70;99.90;;;;;;4868758;28;20056;-46
2024/03/17 09:58:37;;;;;;;4.70;1.52;;;6.80;99.90;;;;;;4902855;28;20069;-54
2024/03/17 10:01:03;;;;;;;3.60;1.52;;;7.00;99.90;;;;;;4910697;28;20129;-51
2024/03/17 10:03:54;;;;;;;4.97;1.60;;;7.20;99.90;;;;;;4888848;28;22088;-50
2024/03/17 10:06:21;;;;;;;9.13;2.47;;;7.30;99.90;;;;;;4866985;28;20026;-49
2024/03/17 10:08:52;;;;;;;6.97;1.73;;;7.50;99.90;;;;;;4935020;28;20113;-49
2024/03/17 10:11:31;;;;;;;4.70;1.52;;;7.60;99.90;;;;;;4875893;28;20471;-50
2024/03/17 10:14:03;;;;;;;6.53;1.55;;;7.70;99.90;;;;;;4869145;28;21757;-48
2024/03/17 10:16:29;;;;;;;6.97;1.77;;;8.00;99.90;;;;;;4938752;28;20053;-55
2024/03/17 10:19:14;;;;;;;8.27;1.38;;;8.20;99.90;;;;;;4931297;28;20117;-52
2024/03/17 10:21:46;;;;;;;5.28;1.17;;;8.40;99.90;;;;;;4947869;28;20073;-49
2024/03/17 10:24:26;;;;;;;10.93;1.67;;;8.50;99.90;;;;;;4919105;28;20044;-56
2024/03/17 10:26:57;;;;;;;5.90;1.95;;;8.60;99.90;;;;;;4975736;28;20030;-48
2024/03/17 10:29:30;;;;;;;16.20;2.60;;;8.70;99.90;;;;;;4909643;28;20040;-46
2024/03/17 10:31:57;;;;;;;4.72;1.55;;;8.80;99.90;;;;;;4913410;28;20026;-46
2024/03/17 10:34:30;;;;;;;10.98;2.17;;;8.90;99.90;;;;;;4925115;28;20653;-48
2024/03/17 10:37:17;;;;;;;4.90;1.27;;;9.00;99.90;;;;;;4920609;28;20026;-46
2024/03/17 10:39:44;;;;;;;3.33;1.20;;;9.00;99.90;;;;;;4936265;28;20509;-49
2024/03/17 10:42:11;;;;;;;3.22;1.13;;;9.10;99.90;;;;;;4920642;28;20045;-53
2024/03/17 10:44:41;;;;;;;2.42;1.33;;;9.20;99.90;;;;;;4970720;22;20046;-48
2024/03/17 10:47:20;;;;;;;8.52;1.75;;;9.20;99.90;;;;;;4928266;28;20104;-49
2024/03/17 10:49:46;;;;;;;5.22;1.50;;;9.10;99.90;;;;;;4902493;28;20030;-50
2024/03/17 10:52:18;;;;;;;3.03;1.27;;;9.20;99.90;;;;;;4949723;28;21552;-53
2024/03/17 10:54:53;;;;;;;8.88;1.30;;;9.00;99.90;;;;;;4967213;28;20058;-50
2024/03/17 10:57:34;;;;;;;3.03;1.45;;;8.90;99.90;;;;;;4954487;28;20041;-52
2024/03/17 11:00:04;;;;;;;6.13;1.92;;;8.90;99.90;;;;;;4969212;28;20082;-52
2024/03/17 11:02:32;;;;;;;8.43;1.42;;;8.90;99.90;;;;;;4963144;28;20033;-50
2024/03/17 11:05:29;;;;;;;2.90;0.95;;;8.90;99.90;;;;;;4957309;28;20058;-50
2024/03/17 11:07:57;;;;;;;5.38;1.48;;;9.00;99.90;;;;;;4958504;28;20030;-49
2024/03/17 11:10:28;;;;;;;7.45;1.77;;;9.00;99.90;;;;;;4954945;28;20530;-49
2024/03/17 11:12:56;;;;;;;5.65;1.20;;;9.00;99.90;;;;;;4957659;28;20037;-53
2024/03/17 11:15:34;;;;;;;5.40;1.58;;;9.00;99.90;;;;;;4962306;28;21657;-50
2024/03/17 11:18:09;;;;;;;6.32;1.40;;;8.90;99.90;;;;;;4980589;28;20034;-50
2024/03/17 11:20:39;;;;;;;4.53;1.10;;;8.80;99.90;;;;;;4963957;28;20100;-55
2024/03/17 11:23:06;;;;;;;3.08;1.23;;;8.80;99.90;;;;;;4950451;28;20026;-51
2024/03/17 11:25:33;;;;;;;5.07;1.50;;;8.80;99.90;;;;;;4945292;28;20041;-49
2024/03/17 11:28:01;;;;;;;3.10;1.10;;;8.90;99.90;;;;;;4950295;28;20450;-54
2024/03/17 11:30:47;;;;;;;7.47;1.75;;;8.90;99.90;;;;;;4958826;28;20037;-48
2024/03/17 11:33:35;;;;;;;4.50;1.30;;;8.90;99.90;;;;;;4948918;28;20038;-54
2024/03/17 11:36:28;;;;;;;5.40;1.20;;;9.00;99.90;;;;;;4968661;28;20257;-53
2024/03/17 11:39:02;;;;;;;2.22;0.95;;;8.90;99.90;;;;;;4967940;28;20034;-51
2024/03/17 11:41:31;;;;;;;3.05;0.88;;;8.70;99.90;;;;;;4954516;28;20045;-53
2024/03/17 11:44:21;;;;;;;6.13;1.48;;;8.50;99.80;;;;;;4950165;28;20038;-52
2024/03/17 11:47:04;;;;;;;3.40;1.25;;;8.60;99.90;;;;;;4965794;28;20178;-52
2024/03/17 11:49:38;;;;;;;5.10;1.10;;;8.70;99.90;;;;;;4965187;28;20031;-50
2024/03/17 11:52:08;;;;;;;3.30;1.15;;;8.90;99.90;;;;;;4965620;28;20073;-49
2024/03/17 11:54:39;;;;;;;5.22;1.08;;;8.90;99.90;;;;;;4985015;28;20022;-50
2024/03/17 11:57:22;;;;;;;4.35;0.98;;;9.00;99.90;;;;;;4961141;28;20026;-51
2024/03/17 11:59:48;;;;;;;6.85;1.58;;;9.10;99.90;;;;;;4962855;28;20022;-49
2024/03/17 12:02:22;;;;;;;6.88;2.03;;;9.00;99.90;;;;;;4971375;28;20053;-49
2024/03/17 12:04:49;;;;;;;5.47;1.38;;;8.90;99.90;;;;;;4962147;28;20041;-51
2024/03/17 12:07:17;;;;;;;6.90;1.50;;;8.90;99.90;;;;;;4969450;28;21592;-52
2024/03/17 12:09:45;;;;;;;8.75;1.80;;;8.80;99.90;;;;;;4980369;28;20110;-50
2024/03/17 12:12:19;;;;;;;10.50;1.75;;;8.70;99.90;;;;;;4965034;28;20029;-54
2024/03/17 12:14:45;;;;;;;5.57;1.23;;;8.70;99.90;;;;;;4977261;28;20023;-52
2024/03/17 12:17:13;;;;;;;5.50;1.80;;;8.70;99.90;;;;;;4969622;28;20030;-52
2024/03/17 12:19:39;;;;;;;4.50;1.30;;;8.80;99.90;;;;;;4973872;28;20621;-54
2024/03/17 12:22:06;;;;;;;5.13;1.08;;;8.80;99.90;;;;;;4958788;28;20035;-50
2024/03/17 12:24:36;;;;;;;3.75;1.55;;;8.90;99.90;;;;;;4980546;28;20022;-50
2024/03/17 12:27:05;;;;;;;5.18;1.33;;;8.90;99.90;;;;;;4960782;28;20173;-52
2024/03/17 12:29:42;;;;;;;8.18;1.27;;;9.00;99.90;;;;;;4966204;28;20038;-53
2024/03/17 12:32:11;;;;;;;2.33;1.08;;;9.10;99.90;;;;;;4971363;28;20078;-52
2024/03/17 12:34:37;;;;;;;5.30;1.30;;;9.00;99.90;;;;;;4962112;28;20030;-50
2024/03/17 12:37:04;;;;;;;6.50;1.40;;;9.00;99.90;;;;;;4968717;28;20109;-53
2024/03/17 12:39:31;;;;;;;8.55;2.00;;;9.10;99.90;;;;;;4976406;28;20092;-50
2024/03/17 12:42:07;;;;;;;6.55;1.40;;;9.10;99.90;;;;;;4957587;28;20394;-52
2024/03/17 12:44:41;;;;;;;4.88;1.25;;;9.20;99.90;;;;;;4962509;28;20038;-48
2024/03/17 12:47:18;;;;;;;3.22;1.42;;;9.20;99.90;;;;;;4966942;28;20030;-50
2024/03/17 12:49:57;;;;;;;4.35;1.50;;;9.10;99.90;;;;;;4961940;28;20116;-48
2024/03/17 12:52:30;;;;;;;4.00;1.02;;;9.10;99.90;;;;;;4958904;28;20038;-52
2024/03/17 13:00:36;;;;;;;5.63;1.48;;;8.90;99.90;;;;;;4974291;28;20375;-48
2024/03/17 13:03:02;;;;;;;3.67;0.93;;;8.90;99.90;;;;;;4956281;28;20030;-52
2024/03/17 13:05:29;;;;;;;5.88;1.52;;;8.90;99.90;;;;;;4972783;28;20038;-48
2024/03/17 13:07:57;;;;;;;7.32;1.52;;;8.90;99.90;;;;;;4969846;28;20026;-51